createdAt,value
2022-09-12T00:04:54.888Z,1015.39
2022-09-12T00:14:54.916Z,1015.29
2022-09-12T00:24:55.235Z,1015.28
2022-09-12T00:34:55.324Z,1015.17
2022-09-12T00:44:55.482Z,1015.12
2022-09-12T00:54:55.514Z,1014.99
2022-09-12T01:04:55.825Z,1014.93
2022-09-12T01:14:55.856Z,1014.76
2022-09-12T01:24:56.175Z,1014.71
2022-09-12T01:34:56.245Z,1014.64
2022-09-12T01:44:56.525Z,1014.63
2022-09-12T01:54:56.547Z,1014.56
2022-09-12T02:04:56.862Z,1014.57
2022-09-12T02:14:56.896Z,1014.50
2022-09-12T02:24:57.222Z,1014.42
2022-09-12T02:34:57.250Z,1014.39
2022-09-12T02:44:57.675Z,1014.34
2022-09-12T02:54:57.699Z,1014.26
2022-09-12T03:04:58.023Z,1014.27
2022-09-12T03:14:58.054Z,1014.16
2022-09-12T03:24:58.384Z,1014.15
2022-09-12T03:34:58.399Z,1014.06
2022-09-12T03:44:58.717Z,1014.05
2022-09-12T03:54:58.759Z,1014.11
2022-09-12T04:04:59.067Z,1014.10
2022-09-12T04:14:59.096Z,1014.14
2022-09-12T04:24:59.424Z,1014.18
2022-09-12T04:34:59.451Z,1014.25
2022-09-12T04:44:59.760Z,1014.37
2022-09-12T04:54:59.775Z,1014.36
2022-09-12T05:05:00.100Z,1014.36
2022-09-12T05:15:00.131Z,1014.51
2022-09-12T05:25:00.459Z,1014.61
2022-09-12T05:35:00.514Z,1014.58
2022-09-12T05:45:00.809Z,1014.70
2022-09-12T05:55:00.826Z,1014.70
2022-09-12T06:05:01.165Z,1014.67
2022-09-12T06:15:01.195Z,1014.64
2022-09-12T06:25:03.558Z,1014.58
2022-09-12T06:35:01.589Z,1014.65
2022-09-12T06:45:01.871Z,1014.60
2022-09-12T06:55:01.897Z,1014.60
2022-09-12T07:05:02.206Z,1014.63
2022-09-12T07:15:02.248Z,1014.59
2022-09-12T07:25:02.563Z,1014.61
2022-09-12T07:35:02.594Z,1014.49
2022-09-12T07:45:02.914Z,1014.46
2022-09-12T07:55:02.956Z,1014.48
2022-09-12T08:05:03.266Z,1014.49
2022-09-12T08:15:03.297Z,1014.43
2022-09-12T08:25:03.625Z,1014.36
2022-09-12T08:35:03.655Z,1014.27
2022-09-12T08:45:03.972Z,1014.21
2022-09-12T08:55:03.997Z,1014.21
2022-09-12T09:05:04.313Z,1014.20
2022-09-12T09:15:04.335Z,1014.15
2022-09-12T09:25:04.668Z,1013.96
2022-09-12T09:35:04.697Z,1013.99
2022-09-12T09:45:05.006Z,1013.98
2022-09-12T09:55:05.077Z,1013.94
2022-09-12T10:05:05.150Z,1013.94
2022-09-12T10:15:05.175Z,1013.76
2022-09-12T10:25:05.499Z,1013.68
2022-09-12T10:35:05.530Z,1013.61
2022-09-12T10:45:05.956Z,1013.66
2022-09-12T10:55:05.997Z,1013.54
2022-09-12T11:05:06.306Z,1013.50
2022-09-12T11:15:06.343Z,1013.43
2022-09-12T11:25:06.657Z,1013.36
2022-09-12T11:35:06.689Z,1013.36
2022-09-12T11:45:09.221Z,1013.24
2022-09-12T11:55:07.062Z,1013.09
2022-09-12T12:05:07.353Z,1013.10
2022-09-12T12:15:07.378Z,1013.13
2022-09-12T12:25:07.714Z,1013.06
2022-09-12T12:35:07.736Z,1012.92
2022-09-12T12:45:10.066Z,1012.82
2022-09-12T12:55:08.110Z,1012.75
2022-09-12T13:05:08.431Z,1012.62
2022-09-12T13:15:08.462Z,1012.52
2022-09-12T13:25:08.752Z,1012.35
2022-09-12T13:35:08.796Z,1012.26
2022-09-12T13:45:09.114Z,1012.14
2022-09-12T13:55:09.147Z,1012.01
2022-09-12T14:05:09.461Z,1012.00
2022-09-12T14:15:09.493Z,1011.88
2022-09-12T14:25:09.804Z,1011.87
2022-09-12T14:35:09.843Z,1011.81
2022-09-12T14:45:10.160Z,1011.75
2022-09-12T14:55:10.195Z,1011.80
2022-09-12T15:05:10.607Z,1011.74
2022-09-12T15:15:11.668Z,1011.69
2022-09-12T15:25:10.950Z,1011.68
2022-09-12T15:35:11.086Z,1011.66
2022-09-12T15:45:11.623Z,1011.58
2022-09-12T15:55:11.261Z,1011.51
2022-09-12T16:05:11.552Z,1011.58
2022-09-12T16:15:11.585Z,1011.62
2022-09-12T16:25:11.695Z,1011.48
2022-09-12T16:35:11.837Z,1011.44
2022-09-12T16:45:12.254Z,1011.45
2022-09-12T16:55:12.268Z,1011.43
2022-09-12T17:05:12.601Z,1011.55
2022-09-12T17:15:12.621Z,1011.58
2022-09-12T17:25:20.135Z,1011.68
2022-09-12T17:35:13.161Z,1011.69
2022-09-12T17:45:17.730Z,1011.83
2022-09-12T17:55:14.262Z,1011.83
2022-09-12T18:05:13.534Z,1011.87
2022-09-12T18:15:13.742Z,1012.04
2022-09-12T18:25:14.043Z,1012.07
2022-09-12T18:35:14.243Z,1012.13
2022-09-12T18:45:14.399Z,1012.18
2022-09-12T18:55:14.433Z,1012.23
2022-09-12T19:05:14.867Z,1012.20
2022-09-12T19:15:14.961Z,1012.19
2022-09-12T19:25:14.951Z,1012.13
2022-09-12T19:35:15.162Z,1012.13
2022-09-12T19:45:15.372Z,1012.13
2022-09-12T19:55:15.433Z,1011.97
2022-09-12T20:05:15.747Z,1012.03
2022-09-12T20:15:15.801Z,1012.11
2022-09-12T20:25:16.102Z,1012.03
2022-09-12T20:35:16.132Z,1012.01
2022-09-12T20:45:16.457Z,1012.01
2022-09-12T20:55:16.480Z,1011.97
2022-09-12T21:05:16.805Z,1011.87
2022-09-12T21:15:16.845Z,1011.85
2022-09-12T21:25:17.155Z,1011.90
2022-09-12T21:35:17.192Z,1011.98
2022-09-12T21:45:17.500Z,1011.91
2022-09-12T21:55:17.504Z,1011.91
2022-09-12T22:05:17.862Z,1011.77
2022-09-12T22:15:39.540Z,1011.79
2022-09-12T22:25:19.153Z,1011.70
2022-09-12T22:35:18.474Z,1011.72
2022-09-12T22:45:18.519Z,1011.62
2022-09-12T22:55:18.843Z,1011.46
2022-09-12T23:05:18.867Z,1011.41
2022-09-12T23:15:19.170Z,1011.42
2022-09-12T23:25:19.199Z,1011.33
2022-09-12T23:35:19.535Z,1011.29
2022-09-12T23:45:19.559Z,1011.19
2022-09-12T23:55:19.879Z,1011.22
